sensor_id;sensor_type;location;lat;lon;timestamp;P1;durP1;ratioP1;P2;durP2;ratioP2
53269;SDS011;39159;45.634;9.420;2024-02-28T00:00:47;5.90;;;4.15;;
53269;SDS011;39159;45.634;9.420;2024-02-28T00:03:12;6.20;;;3.90;;
53269;SDS011;39159;45.634;9.420;2024-02-28T00:05:38;5.72;;;4.28;;
53269;SDS011;39159;45.634;9.420;2024-02-28T00:08:04;5.68;;;3.67;;
53269;SDS011;39159;45.634;9.420;2024-02-28T00:10:29;8.88;;;3.80;;
53269;SDS011;39159;45.634;9.420;2024-02-28T00:12:54;5.60;;;3.83;;
53269;SDS011;39159;45.634;9.420;2024-02-28T00:15:20;7.30;;;3.80;;
53269;SDS011;39159;45.634;9.420;2024-02-28T00:17:45;5.05;;;4.10;;
53269;SDS011;39159;45.634;9.420;2024-02-28T00:20:11;5.40;;;4.05;;
53269;SDS011;39159;45.634;9.420;2024-02-28T00:22:37;7.40;;;4.38;;
53269;SDS011;39159;45.634;9.420;2024-02-28T00:25:03;6.07;;;4.35;;
53269;SDS011;39159;45.634;9.420;2024-02-28T00:27:31;7.05;;;4.57;;
53269;SDS011;39159;45.634;9.420;2024-02-28T00:29:57;6.03;;;4.18;;
53269;SDS011;39159;45.634;9.420;2024-02-28T00:32:22;6.10;;;4.70;;
53269;SDS011;39159;45.634;9.420;2024-02-28T00:34:47;4.80;;;3.75;;
53269;SDS011;39159;45.634;9.420;2024-02-28T00:37:13;4.93;;;3.67;;
53269;SDS011;39159;45.634;9.420;2024-02-28T00:39:38;5.57;;;3.80;;
53269;SDS011;39159;45.634;9.420;2024-02-28T00:42:04;6.07;;;4.10;;
53269;SDS011;39159;45.634;9.420;2024-02-28T00:44:29;6.25;;;3.85;;
53269;SDS011;39159;45.634;9.420;2024-02-28T00:46:54;4.38;;;3.58;;
53269;SDS011;39159;45.634;9.420;2024-02-28T00:49:20;7.80;;;3.97;;
53269;SDS011;39159;45.634;9.420;2024-02-28T00:51:45;5.22;;;3.90;;
53269;SDS011;39159;45.634;9.420;2024-02-28T00:54:11;4.97;;;3.60;;
53269;SDS011;39159;45.634;9.420;2024-02-28T00:56:36;4.35;;;3.38;;
53269;SDS011;39159;45.634;9.420;2024-02-28T00:59:02;3.60;;;3.25;;
53269;SDS011;39159;45.634;9.420;2024-02-28T01:01:27;5.15;;;3.88;;
53269;SDS011;39159;45.634;9.420;2024-02-28T01:03:53;6.03;;;3.65;;
53269;SDS011;39159;45.634;9.420;2024-02-28T01:06:18;3.83;;;2.97;;
53269;SDS011;39159;45.634;9.420;2024-02-28T01:08:43;5.57;;;3.60;;
53269;SDS011;39159;45.634;9.420;2024-02-28T01:11:09;5.22;;;4.05;;
53269;SDS011;39159;45.634;9.420;2024-02-28T01:13:35;5.93;;;3.95;;
53269;SDS011;39159;45.634;9.420;2024-02-28T01:16:00;5.65;;;3.95;;
53269;SDS011;39159;45.634;9.420;2024-02-28T01:18:26;5.13;;;3.70;;
53269;SDS011;39159;45.634;9.420;2024-02-28T01:20:55;5.30;;;3.85;;
53269;SDS011;39159;45.634;9.420;2024-02-28T01:23:21;6.30;;;4.22;;
53269;SDS011;39159;45.634;9.420;2024-02-28T01:25:46;6.60;;;4.88;;
53269;SDS011;39159;45.634;9.420;2024-02-28T01:28:11;8.43;;;6.45;;
53269;SDS011;39159;45.634;9.420;2024-02-28T01:30:37;13.25;;;6.50;;
53269;SDS011;39159;45.634;9.420;2024-02-28T01:33:02;7.47;;;5.90;;
53269;SDS011;39159;45.634;9.420;2024-02-28T01:35:28;9.05;;;6.50;;
53269;SDS011;39159;45.634;9.420;2024-02-28T01:37:53;8.52;;;6.10;;
53269;SDS011;39159;45.634;9.420;2024-02-28T01:40:18;7.90;;;5.55;;
53269;SDS011;39159;45.634;9.420;2024-02-28T01:42:44;8.05;;;6.22;;
53269;SDS011;39159;45.634;9.420;2024-02-28T01:45:13;10.25;;;6.47;;
53269;SDS011;39159;45.634;9.420;2024-02-28T01:47:39;7.13;;;4.68;;
53269;SDS011;39159;45.634;9.420;2024-02-28T01:50:06;6.30;;;4.68;;
53269;SDS011;39159;45.634;9.420;2024-02-28T01:52:33;6.90;;;4.60;;
53269;SDS011;39159;45.634;9.420;2024-02-28T01:54:58;6.55;;;4.30;;
53269;SDS011;39159;45.634;9.420;2024-02-28T01:57:24;5.68;;;4.25;;
53269;SDS011;39159;45.634;9.420;2024-02-28T01:59:50;6.43;;;4.72;;
53269;SDS011;39159;45.634;9.420;2024-02-28T02:02:17;6.93;;;4.55;;
53269;SDS011;39159;45.634;9.420;2024-02-28T02:04:43;5.15;;;4.03;;
53269;SDS011;39159;45.634;9.420;2024-02-28T02:07:08;7.03;;;4.88;;
53269;SDS011;39159;45.634;9.420;2024-02-28T02:09:34;7.65;;;5.53;;
53269;SDS011;39159;45.634;9.420;2024-02-28T02:12:00;8.57;;;5.10;;
53269;SDS011;39159;45.634;9.420;2024-02-28T02:14:25;7.22;;;5.50;;
53269;SDS011;39159;45.634;9.420;2024-02-28T02:16:51;6.80;;;4.90;;
53269;SDS011;39159;45.634;9.420;2024-02-28T02:19:16;7.28;;;5.05;;
53269;SDS011;39159;45.634;9.420;2024-02-28T02:21:43;7.57;;;5.40;;
53269;SDS011;39159;45.634;9.420;2024-02-28T02:24:15;7.68;;;5.40;;
53269;SDS011;39159;45.634;9.420;2024-02-28T02:26:41;6.07;;;4.85;;
53269;SDS011;39159;45.634;9.420;2024-02-28T02:29:09;7.55;;;5.10;;
53269;SDS011;39159;45.634;9.420;2024-02-28T02:31:34;8.15;;;5.88;;
53269;SDS011;39159;45.634;9.420;2024-02-28T02:33:59;5.88;;;4.53;;
53269;SDS011;39159;45.634;9.420;2024-02-28T02:36:25;7.70;;;5.10;;
53269;SDS011;39159;45.634;9.420;2024-02-28T02:38:50;10.02;;;5.45;;
53269;SDS011;39159;45.634;9.420;2024-02-28T02:41:16;7.25;;;5.32;;
53269;SDS011;39159;45.634;9.420;2024-02-28T02:43:41;7.82;;;5.60;;
53269;SDS011;39159;45.634;9.420;2024-02-28T02:46:06;7.55;;;5.25;;
53269;SDS011;39159;45.634;9.420;2024-02-28T02:48:32;8.80;;;5.80;;
53269;SDS011;39159;45.634;9.420;2024-02-28T02:50:58;6.15;;;5.03;;
53269;SDS011;39159;45.634;9.420;2024-02-28T02:53:23;6.03;;;4.68;;
53269;SDS011;39159;45.634;9.420;2024-02-28T02:55:48;5.75;;;4.70;;
53269;SDS011;39159;45.634;9.420;2024-02-28T02:58:14;8.00;;;5.20;;
53269;SDS011;39159;45.634;9.420;2024-02-28T03:00:39;5.70;;;4.72;;
53269;SDS011;39159;45.634;9.420;2024-02-28T03:03:04;4.35;;;3.88;;
53269;SDS011;39159;45.634;9.420;2024-02-28T03:05:30;4.65;;;3.75;;
53269;SDS011;39159;45.634;9.420;2024-02-28T03:07:56;6.18;;;4.15;;
53269;SDS011;39159;45.634;9.420;2024-02-28T03:10:21;6.15;;;3.67;;
53269;SDS011;39159;45.634;9.420;2024-02-28T03:12:46;4.45;;;3.58;;
53269;SDS011;39159;45.634;9.420;2024-02-28T03:15:12;4.65;;;3.83;;
53269;SDS011;39159;45.634;9.420;2024-02-28T03:17:37;5.15;;;3.58;;
53269;SDS011;39159;45.634;9.420;2024-02-28T03:20:03;6.13;;;4.00;;
53269;SDS011;39159;45.634;9.420;2024-02-28T03:22:28;5.93;;;4.45;;
53269;SDS011;39159;45.634;9.420;2024-02-28T03:24:54;6.38;;;3.83;;
53269;SDS011;39159;45.634;9.420;2024-02-28T03:27:19;5.50;;;4.00;;
53269;SDS011;39159;45.634;9.420;2024-02-28T03:29:44;5.10;;;3.80;;
53269;SDS011;39159;45.634;9.420;2024-02-28T03:32:10;6.88;;;4.95;;
53269;SDS011;39159;45.634;9.420;2024-02-28T03:34:36;6.90;;;4.55;;
53269;SDS011;39159;45.634;9.420;2024-02-28T03:37:01;7.53;;;4.88;;
53269;SDS011;39159;45.634;9.420;2024-02-28T03:39:27;6.88;;;4.70;;
53269;SDS011;39159;45.634;9.420;2024-02-28T03:41:52;7.35;;;5.38;;
53269;SDS011;39159;45.634;9.420;2024-02-28T03:44:17;6.20;;;4.57;;
53269;SDS011;39159;45.634;9.420;2024-02-28T03:46:43;5.65;;;4.60;;
53269;SDS011;39159;45.634;9.420;2024-02-28T03:49:08;6.85;;;4.90;;
53269;SDS011;39159;45.634;9.420;2024-02-28T03:51:39;7.30;;;4.78;;
53269;SDS011;39159;45.634;9.420;2024-02-28T03:54:05;7.03;;;4.70;;
53269;SDS011;39159;45.634;9.420;2024-02-28T03:56:30;5.78;;;4.53;;
53269;SDS011;39159;45.634;9.420;2024-02-28T03:58:56;7.22;;;4.38;;
53269;SDS011;39159;45.634;9.420;2024-02-28T04:01:21;6.65;;;4.72;;
53269;SDS011;39159;45.634;9.420;2024-02-28T04:03:47;6.45;;;5.00;;
53269;SDS011;39159;45.634;9.420;2024-02-28T04:06:12;7.68;;;4.80;;
53269;SDS011;39159;45.634;9.420;2024-02-28T04:08:37;7.53;;;4.55;;
53269;SDS011;39159;45.634;9.420;2024-02-28T04:11:03;5.43;;;4.55;;
53269;SDS011;39159;45.634;9.420;2024-02-28T04:13:28;6.38;;;4.80;;
53269;SDS011;39159;45.634;9.420;2024-02-28T04:15:54;7.20;;;4.40;;
53269;SDS011;39159;45.634;9.420;2024-02-28T04:18:19;6.22;;;4.20;;
53269;SDS011;39159;45.634;9.420;2024-02-28T04:20:45;5.38;;;4.45;;
53269;SDS011;39159;45.634;9.420;2024-02-28T04:23:10;6.28;;;4.10;;
53269;SDS011;39159;45.634;9.420;2024-02-28T04:25:35;7.50;;;4.18;;
53269;SDS011;39159;45.634;9.420;2024-02-28T04:28:02;4.82;;;4.05;;
53269;SDS011;39159;45.634;9.420;2024-02-28T04:30:27;6.25;;;5.07;;
53269;SDS011;39159;45.634;9.420;2024-02-28T04:32:53;5.85;;;4.25;;
53269;SDS011;39159;45.634;9.420;2024-02-28T04:35:19;6.20;;;4.57;;
53269;SDS011;39159;45.634;9.420;2024-02-28T04:37:45;6.05;;;4.35;;
53269;SDS011;39159;45.634;9.420;2024-02-28T04:40:11;6.10;;;4.30;;
53269;SDS011;39159;45.634;9.420;2024-02-28T04:42:36;5.80;;;4.60;;
53269;SDS011;39159;45.634;9.420;2024-02-28T04:45:02;6.65;;;4.65;;
53269;SDS011;39159;45.634;9.420;2024-02-28T04:47:31;6.80;;;4.53;;
53269;SDS011;39159;45.634;9.420;2024-02-28T04:49:57;5.75;;;4.50;;
53269;SDS011;39159;45.634;9.420;2024-02-28T04:52:22;7.80;;;4.28;;
53269;SDS011;39159;45.634;9.420;2024-02-28T04:54:49;5.72;;;4.43;;
53269;SDS011;39159;45.634;9.420;2024-02-28T04:57:15;7.72;;;4.40;;
53269;SDS011;39159;45.634;9.420;2024-02-28T04:59:41;6.07;;;3.97;;
53269;SDS011;39159;45.634;9.420;2024-02-28T05:02:08;5.38;;;3.90;;
53269;SDS011;39159;45.634;9.420;2024-02-28T05:04:33;5.60;;;4.00;;
53269;SDS011;39159;45.634;9.420;2024-02-28T05:06:58;4.13;;;3.22;;
53269;SDS011;39159;45.634;9.420;2024-02-28T05:09:24;5.53;;;3.42;;
53269;SDS011;39159;45.634;9.420;2024-02-28T05:11:49;5.25;;;3.28;;
53269;SDS011;39159;45.634;9.420;2024-02-28T05:14:14;3.85;;;3.05;;
53269;SDS011;39159;45.634;9.420;2024-02-28T05:16:40;5.45;;;3.33;;
53269;SDS011;39159;45.634;9.420;2024-02-28T05:19:05;5.05;;;3.38;;
53269;SDS011;39159;45.634;9.420;2024-02-28T05:21:30;5.57;;;4.05;;
53269;SDS011;39159;45.634;9.420;2024-02-28T05:23:56;5.47;;;4.13;;
53269;SDS011;39159;45.634;9.420;2024-02-28T05:26:21;5.25;;;4.03;;
53269;SDS011;39159;45.634;9.420;2024-02-28T05:28:47;6.70;;;4.35;;
53269;SDS011;39159;45.634;9.420;2024-02-28T05:31:25;6.50;;;3.50;;
53269;SDS011;39159;45.634;9.420;2024-02-28T05:33:51;4.78;;;3.13;;
53269;SDS011;39159;45.634;9.420;2024-02-28T05:36:19;3.85;;;2.80;;
53269;SDS011;39159;45.634;9.420;2024-02-28T05:38:45;3.67;;;2.65;;
53269;SDS011;39159;45.634;9.420;2024-02-28T05:41:10;4.35;;;3.00;;
53269;SDS011;39159;45.634;9.420;2024-02-28T05:43:40;3.50;;;2.90;;
53269;SDS011;39159;45.634;9.420;2024-02-28T05:46:05;4.95;;;2.90;;
53269;SDS011;39159;45.634;9.420;2024-02-28T05:48:30;5.15;;;2.88;;
53269;SDS011;39159;45.634;9.420;2024-02-28T05:50:56;3.72;;;2.75;;
53269;SDS011;39159;45.634;9.420;2024-02-28T05:53:21;4.80;;;3.13;;
53269;SDS011;39159;45.634;9.420;2024-02-28T05:55:47;5.22;;;3.25;;
53269;SDS011;39159;45.634;9.420;2024-02-28T05:58:13;5.50;;;3.15;;
53269;SDS011;39159;45.634;9.420;2024-02-28T06:00:38;4.43;;;2.83;;
53269;SDS011;39159;45.634;9.420;2024-02-28T06:03:04;6.93;;;3.25;;
53269;SDS011;39159;45.634;9.420;2024-02-28T06:05:30;5.85;;;3.22;;
53269;SDS011;39159;45.634;9.420;2024-02-28T06:07:55;7.18;;;2.92;;
53269;SDS011;39159;45.634;9.420;2024-02-28T06:10:21;4.45;;;3.38;;
53269;SDS011;39159;45.634;9.420;2024-02-28T06:12:46;5.38;;;3.55;;
53269;SDS011;39159;45.634;9.420;2024-02-28T06:15:12;6.20;;;3.33;;
53269;SDS011;39159;45.634;9.420;2024-02-28T06:17:37;4.82;;;3.22;;
53269;SDS011;39159;45.634;9.420;2024-02-28T06:20:03;6.57;;;3.53;;
53269;SDS011;39159;45.634;9.420;2024-02-28T06:22:28;5.18;;;2.92;;
53269;SDS011;39159;45.634;9.420;2024-02-28T06:24:53;5.80;;;3.45;;
53269;SDS011;39159;45.634;9.420;2024-02-28T06:27:19;5.47;;;3.38;;
53269;SDS011;39159;45.634;9.420;2024-02-28T06:29:44;5.50;;;3.05;;
53269;SDS011;39159;45.634;9.420;2024-02-28T06:32:10;6.50;;;3.53;;
53269;SDS011;39159;45.634;9.420;2024-02-28T06:34:35;4.55;;;3.03;;
53269;SDS011;39159;45.634;9.420;2024-02-28T06:37:00;6.10;;;3.53;;
53269;SDS011;39159;45.634;9.420;2024-02-28T06:39:26;4.47;;;2.90;;
53269;SDS011;39159;45.634;9.420;2024-02-28T06:41:51;6.50;;;3.13;;
53269;SDS011;39159;45.634;9.420;2024-02-28T06:44:20;5.13;;;3.03;;
53269;SDS011;39159;45.634;9.420;2024-02-28T06:46:45;5.68;;;3.33;;
53269;SDS011;39159;45.634;9.420;2024-02-28T06:49:11;4.30;;;3.05;;
53269;SDS011;39159;45.634;9.420;2024-02-28T06:51:37;5.85;;;3.50;;
53269;SDS011;39159;45.634;9.420;2024-02-28T06:54:03;4.90;;;3.05;;
53269;SDS011;39159;45.634;9.420;2024-02-28T06:56:28;4.55;;;2.95;;
53269;SDS011;39159;45.634;9.420;2024-02-28T06:58:55;4.53;;;3.35;;
53269;SDS011;39159;45.634;9.420;2024-02-28T07:01:20;5.22;;;3.00;;
53269;SDS011;39159;45.634;9.420;2024-02-28T07:03:46;3.10;;;2.38;;
53269;SDS011;39159;45.634;9.420;2024-02-28T07:06:11;4.53;;;2.53;;
53269;SDS011;39159;45.634;9.420;2024-02-28T07:08:37;4.22;;;2.58;;
53269;SDS011;39159;45.634;9.420;2024-02-28T07:11:02;4.43;;;3.00;;
53269;SDS011;39159;45.634;9.420;2024-02-28T07:13:28;4.65;;;2.90;;
53269;SDS011;39159;45.634;9.420;2024-02-28T07:15:53;4.28;;;3.00;;
53269;SDS011;39159;45.634;9.420;2024-02-28T07:18:19;4.18;;;2.70;;
53269;SDS011;39159;45.634;9.420;2024-02-28T07:20:45;4.13;;;2.15;;
53269;SDS011;39159;45.634;9.420;2024-02-28T07:23:10;3.20;;;2.45;;
53269;SDS011;39159;45.634;9.420;2024-02-28T07:25:36;3.72;;;2.58;;
53269;SDS011;39159;45.634;9.420;2024-02-28T07:28:01;3.50;;;2.78;;
53269;SDS011;39159;45.634;9.420;2024-02-28T07:30:30;3.72;;;2.30;;
53269;SDS011;39159;45.634;9.420;2024-02-28T07:32:55;2.97;;;2.00;;
53269;SDS011;39159;45.634;9.420;2024-02-28T07:35:21;3.17;;;2.05;;
53269;SDS011;39159;45.634;9.420;2024-02-28T07:37:48;2.97;;;2.08;;
53269;SDS011;39159;45.634;9.420;2024-02-28T07:40:14;4.13;;;2.45;;
53269;SDS011;39159;45.634;9.420;2024-02-28T07:42:39;3.25;;;2.20;;
53269;SDS011;39159;45.634;9.420;2024-02-28T07:45:05;3.90;;;2.10;;
53269;SDS011;39159;45.634;9.420;2024-02-28T07:47:33;3.78;;;2.38;;
53269;SDS011;39159;45.634;9.420;2024-02-28T07:49:58;3.42;;;2.20;;
53269;SDS011;39159;45.634;9.420;2024-02-28T07:52:24;2.80;;;2.00;;
53269;SDS011;39159;45.634;9.420;2024-02-28T07:54:49;3.05;;;2.03;;
53269;SDS011;39159;45.634;9.420;2024-02-28T07:57:15;5.47;;;2.70;;
53269;SDS011;39159;45.634;9.420;2024-02-28T07:59:43;7.80;;;2.50;;
53269;SDS011;39159;45.634;9.420;2024-02-28T08:02:09;3.22;;;2.22;;
53269;SDS011;39159;45.634;9.420;2024-02-28T08:04:38;4.72;;;2.20;;
53269;SDS011;39159;45.634;9.420;2024-02-28T08:07:03;4.57;;;2.20;;
53269;SDS011;39159;45.634;9.420;2024-02-28T08:09:29;4.53;;;2.15;;
53269;SDS011;39159;45.634;9.420;2024-02-28T08:11:54;4.40;;;2.30;;
53269;SDS011;39159;45.634;9.420;2024-02-28T08:14:20;3.75;;;2.20;;
53269;SDS011;39159;45.634;9.420;2024-02-28T08:16:46;2.35;;;2.00;;
53269;SDS011;39159;45.634;9.420;2024-02-28T08:19:11;4.05;;;2.33;;
53269;SDS011;39159;45.634;9.420;2024-02-28T08:21:36;2.30;;;1.75;;
53269;SDS011;39159;45.634;9.420;2024-02-28T08:24:02;2.92;;;2.20;;
53269;SDS011;39159;45.634;9.420;2024-02-28T08:26:30;3.30;;;2.13;;
53269;SDS011;39159;45.634;9.420;2024-02-28T08:28:56;5.03;;;3.10;;
53269;SDS011;39159;45.634;9.420;2024-02-28T08:31:22;4.65;;;2.13;;
53269;SDS011;39159;45.634;9.420;2024-02-28T08:33:47;2.95;;;1.95;;
53269;SDS011;39159;45.634;9.420;2024-02-28T08:36:13;2.40;;;1.58;;
53269;SDS011;39159;45.634;9.420;2024-02-28T08:38:38;3.10;;;1.70;;
53269;SDS011;39159;45.634;9.420;2024-02-28T08:41:04;2.10;;;1.40;;
53269;SDS011;39159;45.634;9.420;2024-02-28T08:43:30;5.32;;;1.90;;
53269;SDS011;39159;45.634;9.420;2024-02-28T08:45:55;2.30;;;1.48;;
53269;SDS011;39159;45.634;9.420;2024-02-28T08:48:21;1.67;;;1.33;;
53269;SDS011;39159;45.634;9.420;2024-02-28T08:50:47;2.35;;;1.48;;
53269;SDS011;39159;45.634;9.420;2024-02-28T08:53:13;3.13;;;1.70;;
53269;SDS011;39159;45.634;9.420;2024-02-28T08:55:38;2.47;;;1.60;;
53269;SDS011;39159;45.634;9.420;2024-02-28T08:58:04;3.92;;;1.73;;
53269;SDS011;39159;45.634;9.420;2024-02-28T09:00:29;3.10;;;1.88;;
53269;SDS011;39159;45.634;9.420;2024-02-28T09:02:55;3.35;;;1.63;;
53269;SDS011;39159;45.634;9.420;2024-02-28T09:05:20;3.13;;;1.60;;
53269;SDS011;39159;45.634;9.420;2024-02-28T09:07:46;3.72;;;1.17;;
53269;SDS011;39159;45.634;9.420;2024-02-28T09:10:16;3.70;;;1.70;;
53269;SDS011;39159;45.634;9.420;2024-02-28T09:12:46;2.88;;;1.65;;
53269;SDS011;39159;45.634;9.420;2024-02-28T09:15:11;2.78;;;1.80;;
53269;SDS011;39159;45.634;9.420;2024-02-28T09:17:37;3.55;;;1.65;;
53269;SDS011;39159;45.634;9.420;2024-02-28T09:20:02;2.33;;;1.20;;
53269;SDS011;39159;45.634;9.420;2024-02-28T09:22:29;2.55;;;1.20;;
53269;SDS011;39159;45.634;9.420;2024-02-28T09:24:54;2.30;;;1.20;;
53269;SDS011;39159;45.634;9.420;2024-02-28T09:27:20;1.70;;;1.10;;
53269;SDS011;39159;45.634;9.420;2024-02-28T09:29:45;2.13;;;0.90;;
53269;SDS011;39159;45.634;9.420;2024-02-28T09:32:10;1.63;;;1.20;;
53269;SDS011;39159;45.634;9.420;2024-02-28T09:34:37;1.92;;;1.20;;
53269;SDS011;39159;45.634;9.420;2024-02-28T09:37:02;1.45;;;1.15;;
53269;SDS011;39159;45.634;9.420;2024-02-28T09:39:29;1.95;;;1.35;;
53269;SDS011;39159;45.634;9.420;2024-02-28T09:41:54;1.90;;;1.33;;
53269;SDS011;39159;45.634;9.420;2024-02-28T09:44:19;3.47;;;1.20;;
53269;SDS011;39159;45.634;9.420;2024-02-28T09:46:46;1.73;;;1.30;;
53269;SDS011;39159;45.634;9.420;2024-02-28T09:49:14;2.85;;;1.30;;
53269;SDS011;39159;45.634;9.420;2024-02-28T09:51:40;2.47;;;1.35;;
53269;SDS011;39159;45.634;9.420;2024-02-28T09:54:06;1.98;;;1.30;;
53269;SDS011;39159;45.634;9.420;2024-02-28T09:56:32;1.92;;;1.20;;
53269;SDS011;39159;45.634;9.420;2024-02-28T09:58:58;1.38;;;1.25;;
53269;SDS011;39159;45.634;9.420;2024-02-28T10:01:25;1.35;;;1.20;;
53269;SDS011;39159;45.634;9.420;2024-02-28T10:03:51;1.63;;;1.20;;
53269;SDS011;39159;45.634;9.420;2024-02-28T10:06:20;4.03;;;1.50;;
53269;SDS011;39159;45.634;9.420;2024-02-28T10:08:45;2.85;;;1.20;;
53269;SDS011;39159;45.634;9.420;2024-02-28T10:16:11;3.53;;;1.30;;
53269;SDS011;39159;45.634;9.420;2024-02-28T10:18:36;1.17;;;1.08;;
53269;SDS011;39159;45.634;9.420;2024-02-28T10:21:02;2.03;;;1.02;;
53269;SDS011;39159;45.634;9.420;2024-02-28T10:23:28;1.98;;;1.10;;
53269;SDS011;39159;45.634;9.420;2024-02-28T10:25:53;1.55;;;1.10;;
53269;SDS011;39159;45.634;9.420;2024-02-28T10:28:19;2.47;;;1.42;;
53269;SDS011;39159;45.634;9.420;2024-02-28T10:30:44;2.10;;;1.70;;
53269;SDS011;39159;45.634;9.420;2024-02-28T10:33:13;2.50;;;1.52;;
53269;SDS011;39159;45.634;9.420;2024-02-28T10:35:39;1.63;;;1.08;;
53269;SDS011;39159;45.634;9.420;2024-02-28T10:38:05;2.17;;;0.80;;
53269;SDS011;39159;45.634;9.420;2024-02-28T10:40:31;1.85;;;0.80;;
53269;SDS011;39159;45.634;9.420;2024-02-28T10:42:57;1.27;;;1.00;;
53269;SDS011;39159;45.634;9.420;2024-02-28T10:45:24;1.30;;;1.10;;
53269;SDS011;39159;45.634;9.420;2024-02-28T10:47:50;1.23;;;0.90;;
53269;SDS011;39159;45.634;9.420;2024-02-28T10:50:16;1.48;;;1.20;;
53269;SDS011;39159;45.634;9.420;2024-02-28T10:52:45;1.17;;;1.08;;
53269;SDS011;39159;45.634;9.420;2024-02-28T10:55:17;2.80;;;1.90;;
53269;SDS011;39159;45.634;9.420;2024-02-28T10:57:46;2.70;;;2.08;;
53269;SDS011;39159;45.634;9.420;2024-02-28T11:00:17;2.80;;;2.23;;
53269;SDS011;39159;45.634;9.420;2024-02-28T11:02:43;3.35;;;2.30;;
53269;SDS011;39159;45.634;9.420;2024-02-28T11:05:08;3.67;;;2.40;;
53269;SDS011;39159;45.634;9.420;2024-02-28T11:07:34;5.97;;;2.38;;
53269;SDS011;39159;45.634;9.420;2024-02-28T11:10:04;5.97;;;2.35;;
53269;SDS011;39159;45.634;9.420;2024-02-28T11:12:31;5.30;;;2.42;;
53269;SDS011;39159;45.634;9.420;2024-02-28T11:14:57;3.05;;;2.00;;
53269;SDS011;39159;45.634;9.420;2024-02-28T11:17:25;5.40;;;2.28;;
53269;SDS011;39159;45.634;9.420;2024-02-28T11:19:53;3.15;;;2.00;;
53269;SDS011;39159;45.634;9.420;2024-02-28T11:22:18;3.20;;;2.15;;
53269;SDS011;39159;45.634;9.420;2024-02-28T11:24:45;5.60;;;2.38;;
53269;SDS011;39159;45.634;9.420;2024-02-28T11:27:13;2.40;;;2.10;;
53269;SDS011;39159;45.634;9.420;2024-02-28T11:29:38;3.97;;;2.65;;
53269;SDS011;39159;45.634;9.420;2024-02-28T11:32:04;2.90;;;2.38;;
53269;SDS011;39159;45.634;9.420;2024-02-28T11:34:31;3.38;;;2.45;;
53269;SDS011;39159;45.634;9.420;2024-02-28T11:36:57;3.78;;;2.47;;
53269;SDS011;39159;45.634;9.420;2024-02-28T11:39:23;4.82;;;2.70;;
53269;SDS011;39159;45.634;9.420;2024-02-28T11:41:52;4.25;;;3.17;;
53269;SDS011;39159;45.634;9.420;2024-02-28T11:44:18;4.65;;;2.88;;
53269;SDS011;39159;45.634;9.420;2024-02-28T11:46:45;6.05;;;3.00;;
53269;SDS011;39159;45.634;9.420;2024-02-28T11:49:12;7.85;;;2.72;;
53269;SDS011;39159;45.634;9.420;2024-02-28T11:51:41;4.15;;;2.53;;
53269;SDS011;39159;45.634;9.420;2024-02-28T11:54:08;4.05;;;2.55;;
53269;SDS011;39159;45.634;9.420;2024-02-28T11:56:35;2.80;;;2.50;;
53269;SDS011;39159;45.634;9.420;2024-02-28T11:59:01;4.18;;;2.30;;
53269;SDS011;39159;45.634;9.420;2024-02-28T12:02:10;3.30;;;2.08;;
53269;SDS011;39159;45.634;9.420;2024-02-28T12:04:20;3.85;;;1.90;;
53269;SDS011;39159;45.634;9.420;2024-02-28T12:06:49;4.47;;;2.10;;
53269;SDS011;39159;45.634;9.420;2024-02-28T12:09:14;3.38;;;1.88;;
53269;SDS011;39159;45.634;9.420;2024-02-28T12:11:39;2.67;;;1.83;;
53269;SDS011;39159;45.634;9.420;2024-02-28T12:14:08;1.70;;;1.20;;
53269;SDS011;39159;45.634;9.420;2024-02-28T12:16:36;1.60;;;1.30;;
53269;SDS011;39159;45.634;9.420;2024-02-28T12:19:03;1.90;;;1.60;;
53269;SDS011;39159;45.634;9.420;2024-02-28T12:21:32;2.08;;;1.88;;
53269;SDS011;39159;45.634;9.420;2024-02-28T12:23:58;1.45;;;1.33;;
53269;SDS011;39159;45.634;9.420;2024-02-28T12:26:23;3.47;;;1.40;;
53269;SDS011;39159;45.634;9.420;2024-02-28T12:28:49;1.92;;;1.40;;
53269;SDS011;39159;45.634;9.420;2024-02-28T12:31:14;2.22;;;1.40;;
53269;SDS011;39159;45.634;9.420;2024-02-28T12:33:40;2.92;;;1.50;;
53269;SDS011;39159;45.634;9.420;2024-02-28T12:36:08;1.65;;;1.33;;
53269;SDS011;39159;45.634;9.420;2024-02-28T12:38:33;1.70;;;1.20;;
53269;SDS011;39159;45.634;9.420;2024-02-28T12:40:59;2.97;;;1.60;;
53269;SDS011;39159;45.634;9.420;2024-02-28T12:43:24;2.03;;;1.27;;
53269;SDS011;39159;45.634;9.420;2024-02-28T12:45:58;5.03;;;1.45;;
53269;SDS011;39159;45.634;9.420;2024-02-28T12:48:24;5.95;;;1.77;;
53269;SDS011;39159;45.634;9.420;2024-02-28T12:50:49;1.65;;;1.27;;
53269;SDS011;39159;45.634;9.420;2024-02-28T12:53:14;2.85;;;1.02;;
53269;SDS011;39159;45.634;9.420;2024-02-28T12:55:40;3.00;;;1.35;;
53269;SDS011;39159;45.634;9.420;2024-02-28T12:58:06;1.45;;;1.27;;
53269;SDS011;39159;45.634;9.420;2024-02-28T13:00:32;2.60;;;1.40;;
53269;SDS011;39159;45.634;9.420;2024-02-28T13:02:57;2.13;;;1.60;;
53269;SDS011;39159;45.634;9.420;2024-02-28T13:05:23;1.50;;;1.30;;
53269;SDS011;39159;45.634;9.420;2024-02-28T13:07:48;3.38;;;1.55;;
53269;SDS011;39159;45.634;9.420;2024-02-28T13:10:13;2.92;;;1.35;;
53269;SDS011;39159;45.634;9.420;2024-02-28T13:12:39;2.03;;;1.35;;
53269;SDS011;39159;45.634;9.420;2024-02-28T13:15:05;3.47;;;1.23;;
53269;SDS011;39159;45.634;9.420;2024-02-28T13:17:31;1.05;;;0.90;;
53269;SDS011;39159;45.634;9.420;2024-02-28T13:19:56;1.73;;;1.02;;
53269;SDS011;39159;45.634;9.420;2024-02-28T13:22:22;1.35;;;0.95;;
53269;SDS011;39159;45.634;9.420;2024-02-28T13:24:47;3.25;;;0.98;;
53269;SDS011;39159;45.634;9.420;2024-02-28T13:27:12;2.90;;;1.10;;
53269;SDS011;39159;45.634;9.420;2024-02-28T13:29:38;1.67;;;1.00;;
53269;SDS011;39159;45.634;9.420;2024-02-28T13:32:03;2.22;;;0.95;;
53269;SDS011;39159;45.634;9.420;2024-02-28T13:34:29;1.48;;;1.10;;
53269;SDS011;39159;45.634;9.420;2024-02-28T13:36:55;2.92;;;1.30;;
53269;SDS011;39159;45.634;9.420;2024-02-28T13:39:22;2.40;;;0.90;;
53269;SDS011;39159;45.634;9.420;2024-02-28T13:41:48;1.10;;;1.10;;
53269;SDS011;39159;45.634;9.420;2024-02-28T13:44:16;1.27;;;1.05;;
53269;SDS011;39159;45.634;9.420;2024-02-28T13:46:43;2.78;;;1.20;;
53269;SDS011;39159;45.634;9.420;2024-02-28T13:49:08;2.20;;;1.50;;
53269;SDS011;39159;45.634;9.420;2024-02-28T13:51:34;2.35;;;1.65;;
53269;SDS011;39159;45.634;9.420;2024-02-28T13:53:59;2.35;;;1.50;;
53269;SDS011;39159;45.634;9.420;2024-02-28T13:56:24;4.18;;;1.70;;
53269;SDS011;39159;45.634;9.420;2024-02-28T13:58:50;4.78;;;2.40;;
53269;SDS011;39159;45.634;9.420;2024-02-28T14:01:15;4.13;;;2.03;;
53269;SDS011;39159;45.634;9.420;2024-02-28T14:03:41;4.60;;;2.20;;
53269;SDS011;39159;45.634;9.420;2024-02-28T14:06:07;2.65;;;1.98;;
53269;SDS011;39159;45.634;9.420;2024-02-28T14:08:33;3.42;;;2.42;;
53269;SDS011;39159;45.634;9.420;2024-02-28T14:11:00;4.90;;;3.00;;
53269;SDS011;39159;45.634;9.420;2024-02-28T14:13:26;6.00;;;2.72;;
53269;SDS011;39159;45.634;9.420;2024-02-28T14:15:52;4.88;;;3.47;;
53269;SDS011;39159;45.634;9.420;2024-02-28T14:18:19;7.28;;;3.75;;
53269;SDS011;39159;45.634;9.420;2024-02-28T14:20:44;6.55;;;3.95;;
53269;SDS011;39159;45.634;9.420;2024-02-28T14:23:10;5.82;;;4.45;;
53269;SDS011;39159;45.634;9.420;2024-02-28T14:25:35;5.97;;;4.53;;
53269;SDS011;39159;45.634;9.420;2024-02-28T14:28:00;5.90;;;4.25;;
53269;SDS011;39159;45.634;9.420;2024-02-28T14:30:26;4.93;;;4.07;;
53269;SDS011;39159;45.634;9.420;2024-02-28T14:32:51;5.90;;;4.57;;
53269;SDS011;39159;45.634;9.420;2024-02-28T14:35:17;8.00;;;4.32;;
53269;SDS011;39159;45.634;9.420;2024-02-28T14:37:42;8.13;;;5.13;;
53269;SDS011;39159;45.634;9.420;2024-02-28T14:40:09;6.22;;;4.65;;
53269;SDS011;39159;45.634;9.420;2024-02-28T14:42:38;6.00;;;3.70;;
53269;SDS011;39159;45.634;9.420;2024-02-28T14:45:06;5.95;;;4.10;;